createdAt,value
2024-05-09T00:00:06.366Z,67.38
2024-05-09T00:00:48.682Z,67.27
2024-05-09T00:01:28.547Z,67.37
2024-05-09T00:02:08.544Z,67.49
2024-05-09T00:02:48.576Z,67.23
2024-05-09T00:03:28.423Z,67.94
2024-05-09T00:04:08.520Z,67.35
2024-05-09T00:04:48.433Z,67.29
2024-05-09T00:05:28.449Z,67.02
2024-05-09T00:06:11.161Z,66.45
2024-05-09T00:06:50.942Z,66.74
2024-05-09T00:07:30.794Z,66.52
2024-05-09T00:08:12.201Z,67.47
2024-05-09T00:08:52.318Z,67.84
2024-05-09T00:09:32.039Z,68.07
2024-05-09T00:10:18.319Z,67.62
2024-05-09T00:11:05.915Z,67.24
2024-05-09T00:11:45.903Z,67.14
2024-05-09T00:12:25.783Z,66.82
2024-05-09T00:13:06.556Z,67.03
2024-05-09T00:13:47.195Z,67.61
2024-05-09T00:14:26.982Z,67.43
2024-05-09T00:15:07.264Z,67.13
2024-05-09T00:15:47.158Z,67.27
2024-05-09T00:16:27.561Z,66.74
2024-05-09T00:17:07.524Z,67.18
2024-05-09T00:17:47.550Z,67.34
2024-05-09T00:18:27.746Z,67.24
2024-05-09T00:19:08.150Z,67.01
2024-05-09T00:19:47.998Z,67.11
2024-05-09T00:20:37.087Z,67.77
2024-05-09T00:21:19.993Z,67.27
2024-05-09T00:22:00.288Z,68.26
2024-05-09T00:22:40.015Z,68.20
2024-05-09T00:23:19.906Z,67.64
2024-05-09T00:23:59.820Z,67.20
2024-05-09T00:24:39.916Z,67.86
2024-05-09T00:25:19.757Z,67.72
2024-05-09T00:25:59.601Z,67.91
2024-05-09T00:26:39.469Z,68.07
2024-05-09T00:27:19.604Z,67.60
2024-05-09T00:27:59.391Z,67.76
2024-05-09T00:28:39.279Z,67.27
2024-05-09T00:29:19.137Z,67.20
2024-05-09T00:29:59.072Z,66.54
2024-05-09T00:30:38.985Z,66.80
2024-05-09T00:31:18.829Z,67.09
2024-05-09T00:31:58.679Z,66.96
2024-05-09T00:32:39.031Z,67.28
2024-05-09T00:33:19.099Z,67.02
2024-05-09T00:33:59.354Z,67.16
2024-05-09T00:34:39.287Z,67.25
2024-05-09T00:35:20.054Z,67.55
2024-05-09T00:35:59.787Z,67.51
2024-05-09T00:36:39.559Z,67.80
2024-05-09T00:37:19.459Z,66.87
2024-05-09T00:37:59.668Z,67.11
2024-05-09T00:38:39.611Z,66.17
2024-05-09T00:39:19.332Z,66.50
2024-05-09T00:39:59.078Z,66.07
2024-05-09T00:40:42.627Z,66.10
2024-05-09T00:41:23.414Z,66.33
2024-05-09T00:42:03.209Z,67.08
2024-05-09T00:42:43.040Z,66.49
2024-05-09T00:43:23.052Z,66.52
2024-05-09T00:44:03.501Z,65.63
2024-05-09T00:44:43.351Z,65.84
2024-05-09T00:45:23.120Z,65.87
2024-05-09T00:46:03.363Z,65.69
2024-05-09T00:46:43.225Z,65.95
2024-05-09T00:47:25.101Z,65.82
2024-05-09T00:48:08.667Z,66.08
2024-05-09T00:48:50.186Z,65.62
2024-05-09T00:49:30.468Z,66.05
2024-05-09T00:50:15.995Z,67.11
2024-05-09T00:51:03.299Z,67.73
2024-05-09T00:51:44.220Z,68.06
2024-05-09T00:52:24.014Z,67.51
2024-05-09T00:53:04.051Z,67.72
2024-05-09T00:53:44.221Z,67.65
2024-05-09T00:54:25.342Z,68.14
2024-05-09T00:55:05.158Z,68.31
2024-05-09T00:55:45.834Z,67.81
2024-05-09T00:56:26.389Z,68.01
2024-05-09T00:57:07.030Z,67.90
2024-05-09T00:57:46.889Z,67.37
2024-05-09T00:58:29.383Z,67.01
2024-05-09T00:59:09.887Z,67.05
2024-05-09T00:59:50.654Z,67.63
2024-05-09T01:01:18.631Z,68.33
2024-05-09T01:01:59.589Z,69.29
2024-05-09T01:02:40.329Z,68.55
2024-05-09T01:03:20.443Z,69.23
2024-05-09T01:04:01.623Z,70.76
2024-05-09T01:04:41.543Z,70.75
2024-05-09T01:05:21.429Z,70.03
2024-05-09T01:06:01.175Z,70.04
2024-05-09T01:06:41.001Z,70.58
2024-05-09T01:07:20.903Z,71.07
2024-05-09T01:08:01.349Z,70.59
2024-05-09T01:08:41.165Z,69.79
2024-05-09T01:09:20.908Z,70.74
2024-05-09T01:10:00.693Z,69.77
2024-05-09T01:10:44.164Z,69.69
2024-05-09T01:11:25.788Z,68.87
2024-05-09T01:12:05.932Z,69.04
2024-05-09T01:12:45.783Z,69.33
2024-05-09T01:13:25.918Z,69.12
2024-05-09T01:14:05.895Z,68.65
2024-05-09T01:14:45.861Z,68.81
2024-05-09T01:15:25.627Z,68.98
2024-05-09T01:16:06.649Z,70.08
2024-05-09T01:16:46.634Z,69.94
2024-05-09T01:17:27.062Z,70.29
2024-05-09T01:18:12.365Z,69.63
2024-05-09T01:18:53.646Z,69.31
2024-05-09T01:19:33.668Z,68.44
2024-05-09T01:20:20.000Z,68.87
2024-05-09T01:21:10.387Z,68.61
2024-05-09T01:21:50.587Z,68.80
2024-05-09T01:22:32.216Z,68.44
2024-05-09T01:23:12.572Z,68.52
2024-05-09T01:23:53.444Z,69.21
2024-05-09T01:24:33.286Z,68.65
2024-05-09T01:25:13.050Z,68.96
2024-05-09T01:25:52.757Z,69.22
2024-05-09T01:26:32.538Z,69.14
2024-05-09T01:27:12.522Z,68.97
2024-05-09T01:27:52.246Z,69.39
2024-05-09T01:28:31.956Z,69.14
2024-05-09T01:29:11.752Z,68.64
2024-05-09T01:29:51.956Z,68.03
2024-05-09T01:30:35.287Z,69.01
2024-05-09T01:31:17.093Z,68.73
2024-05-09T01:32:00.054Z,68.93
2024-05-09T01:32:40.288Z,68.83
2024-05-09T01:33:20.453Z,68.94
2024-05-09T01:34:00.600Z,68.55
2024-05-09T01:34:40.402Z,70.07
2024-05-09T01:35:24.628Z,69.15
2024-05-09T01:36:04.494Z,69.25
2024-05-09T01:36:44.207Z,69.18
2024-05-09T01:37:23.971Z,68.60
2024-05-09T01:38:04.452Z,68.60
2024-05-09T01:38:44.293Z,69.29
2024-05-09T01:39:24.696Z,69.67
2024-05-09T01:40:07.434Z,70.26
2024-05-09T01:40:50.540Z,69.48
2024-05-09T01:41:30.376Z,70.24
2024-05-09T01:42:10.115Z,70.07
2024-05-09T01:42:49.864Z,69.38
2024-05-09T01:43:30.265Z,68.68
2024-05-09T01:44:10.165Z,69.05
2024-05-09T01:44:49.942Z,69.71
2024-05-09T01:45:29.963Z,71.17
2024-05-09T01:46:17.933Z,70.78
2024-05-09T01:46:57.673Z,71.16
2024-05-09T01:47:37.807Z,71.21
2024-05-09T01:48:17.842Z,71.28
2024-05-09T01:48:58.580Z,72.50
2024-05-09T01:49:39.453Z,71.75
2024-05-09T01:50:28.934Z,70.72
2024-05-09T01:51:16.477Z,70.01
2024-05-09T01:51:56.733Z,70.21
2024-05-09T01:52:39.683Z,71.15
2024-05-09T01:53:19.591Z,71.13
2024-05-09T01:53:59.370Z,70.11
2024-05-09T01:54:39.223Z,70.41
2024-05-09T01:55:19.005Z,70.82
2024-05-09T01:55:58.806Z,70.58
2024-05-09T01:56:38.631Z,69.68
2024-05-09T01:57:18.979Z,69.42
2024-05-09T01:57:58.827Z,69.11
2024-05-09T01:58:39.666Z,69.27
2024-05-09T01:59:19.488Z,69.30
2024-05-09T02:00:00.054Z,69.50
2024-05-09T02:00:42.784Z,69.86
2024-05-09T02:01:23.351Z,69.44
2024-05-09T02:02:03.266Z,70.01
2024-05-09T02:02:46.751Z,69.72
2024-05-09T02:03:26.748Z,69.35
2024-05-09T02:04:06.978Z,69.29
2024-05-09T02:04:51.394Z,69.25
2024-05-09T02:05:31.705Z,70.74
2024-05-09T02:06:11.665Z,71.41
2024-05-09T02:06:51.461Z,70.88
2024-05-09T02:07:31.340Z,69.93
2024-05-09T02:08:19.341Z,69.58
2024-05-09T02:08:59.401Z,69.74
2024-05-09T02:09:39.175Z,69.40
2024-05-09T02:10:26.015Z,69.07
2024-05-09T02:11:11.900Z,69.29
2024-05-09T02:11:52.240Z,69.48
2024-05-09T02:12:32.668Z,69.29
2024-05-09T02:13:12.706Z,69.37
2024-05-09T02:13:52.802Z,69.86
2024-05-09T02:14:32.626Z,70.05
2024-05-09T02:15:12.381Z,69.85
2024-05-09T02:15:53.200Z,69.72
2024-05-09T02:16:33.380Z,69.44
2024-05-09T02:17:13.287Z,69.39
2024-05-09T02:17:53.401Z,68.92
2024-05-09T02:18:33.390Z,69.25
2024-05-09T02:19:13.467Z,68.88
2024-05-09T02:19:53.360Z,68.48
2024-05-09T02:20:36.433Z,68.35
2024-05-09T02:21:17.499Z,68.20
2024-05-09T02:21:57.672Z,68.47
2024-05-09T02:22:37.372Z,69.23
2024-05-09T02:23:17.264Z,69.13
2024-05-09T02:23:57.080Z,68.87
2024-05-09T02:24:37.181Z,69.53
2024-05-09T02:25:16.970Z,70.04
2024-05-09T02:25:56.967Z,69.44
2024-05-09T02:26:36.721Z,68.88
2024-05-09T02:27:16.953Z,68.98
2024-05-09T02:27:56.706Z,69.40
2024-05-09T02:28:36.440Z,70.00
2024-05-09T02:29:16.245Z,69.84
2024-05-09T02:29:56.568Z,69.00
2024-05-09T02:30:40.597Z,68.77
2024-05-09T02:31:21.895Z,69.79
2024-05-09T02:32:01.668Z,70.07
2024-05-09T02:32:41.960Z,70.37
2024-05-09T02:33:22.158Z,70.62
2024-05-09T02:34:02.437Z,71.16
2024-05-09T02:34:42.313Z,71.30
2024-05-09T02:35:22.394Z,71.89
2024-05-09T02:36:02.225Z,71.61
2024-05-09T02:36:41.982Z,71.15
2024-05-09T02:37:21.676Z,70.71
2024-05-09T02:38:02.020Z,70.94
2024-05-09T02:38:42.039Z,71.50
2024-05-09T02:39:21.872Z,71.10
2024-05-09T02:40:01.661Z,71.73
2024-05-09T02:40:41.916Z,72.43
2024-05-09T02:41:21.727Z,72.36
2024-05-09T02:42:01.477Z,72.27
2024-05-09T02:42:42.280Z,71.35
2024-05-09T02:43:22.167Z,70.65
2024-05-09T02:44:01.942Z,70.54
2024-05-09T02:44:41.736Z,70.58
2024-05-09T02:45:21.467Z,70.98
2024-05-09T02:46:01.752Z,70.98
2024-05-09T02:46:41.483Z,70.66
2024-05-09T02:47:21.578Z,70.13
2024-05-09T02:48:02.199Z,70.38
2024-05-09T02:48:42.741Z,70.21
2024-05-09T02:49:22.672Z,69.52
2024-05-09T02:50:03.050Z,70.21
2024-05-09T02:50:45.216Z,70.23
2024-05-09T02:51:25.152Z,69.93
2024-05-09T02:52:04.938Z,70.17
2024-05-09T02:52:44.749Z,70.33
2024-05-09T02:53:24.737Z,69.77
2024-05-09T02:54:04.691Z,69.68
2024-05-09T02:54:44.412Z,70.21
2024-05-09T02:55:24.345Z,70.10
2024-05-09T02:56:04.106Z,70.26
2024-05-09T02:56:44.191Z,70.95
2024-05-09T02:57:23.962Z,70.71
2024-05-09T02:58:03.762Z,71.38
2024-05-09T02:58:43.571Z,71.28
2024-05-09T02:59:23.992Z,71.47
2024-05-09T03:00:06.206Z,71.24
2024-05-09T03:00:47.542Z,70.92
2024-05-09T03:01:27.329Z,70.83
2024-05-09T03:02:07.398Z,71.15
2024-05-09T03:02:47.242Z,70.63
2024-05-09T03:03:27.497Z,70.71
2024-05-09T03:04:07.759Z,70.15
2024-05-09T03:04:47.974Z,69.96
2024-05-09T03:05:27.888Z,69.82
2024-05-09T03:06:07.746Z,69.92
2024-05-09T03:06:47.519Z,70.02
2024-05-09T03:07:27.525Z,69.91
2024-05-09T03:08:07.825Z,70.12
2024-05-09T03:08:49.895Z,70.09
2024-05-09T03:09:30.055Z,69.83
2024-05-09T03:10:18.275Z,70.07
2024-05-09T03:11:02.183Z,70.30
2024-05-09T03:11:42.091Z,70.03
2024-05-09T03:12:21.921Z,69.80
2024-05-09T03:13:02.025Z,70.16
2024-05-09T03:13:43.641Z,69.72
2024-05-09T03:14:23.821Z,69.99
2024-05-09T03:15:03.767Z,69.83
2024-05-09T03:15:44.706Z,70.09
2024-05-09T03:16:24.695Z,70.44
2024-05-09T03:17:04.600Z,70.64
2024-05-09T03:17:44.639Z,70.41
2024-05-09T03:18:25.245Z,70.19
2024-05-09T03:19:05.107Z,70.40
2024-05-09T03:19:44.909Z,71.70
2024-05-09T03:20:32.252Z,72.31
2024-05-09T03:21:14.454Z,72.06
2024-05-09T03:21:55.463Z,72.17
2024-05-09T03:22:35.269Z,72.31
2024-05-09T03:23:15.216Z,71.91
2024-05-09T03:23:55.543Z,71.45
2024-05-09T03:24:35.434Z,70.69
2024-05-09T03:25:15.288Z,70.47
2024-05-09T03:25:55.196Z,70.37
2024-05-09T03:26:35.727Z,70.08
2024-05-09T03:27:15.570Z,70.17
2024-05-09T03:27:55.844Z,70.33
2024-05-09T03:28:35.610Z,70.38
2024-05-09T03:29:15.657Z,70.73
2024-05-09T03:29:55.458Z,71.25
2024-05-09T03:30:40.670Z,71.87
2024-05-09T03:31:22.616Z,72.25
2024-05-09T03:32:02.767Z,72.32
2024-05-09T03:32:45.036Z,72.42
2024-05-09T03:33:25.006Z,71.74
2024-05-09T03:34:05.248Z,71.35
2024-05-09T03:34:45.257Z,71.86
2024-05-09T03:35:25.273Z,71.33
2024-05-09T03:36:09.108Z,71.43
2024-05-09T03:36:50.400Z,71.04
2024-05-09T03:37:30.409Z,72.22
2024-05-09T03:38:10.223Z,72.79
2024-05-09T03:38:51.819Z,73.16
2024-05-09T03:39:31.629Z,73.67
2024-05-09T03:40:17.731Z,73.31
2024-05-09T03:41:00.783Z,72.56
2024-05-09T03:41:40.699Z,72.08
2024-05-09T03:42:20.435Z,71.75
2024-05-09T03:43:00.467Z,71.42
2024-05-09T03:43:40.164Z,71.59
2024-05-09T03:44:20.428Z,70.93
2024-05-09T03:45:00.368Z,70.98
2024-05-09T03:45:40.677Z,71.10
2024-05-09T03:46:20.496Z,71.04
2024-05-09T03:47:00.241Z,71.73
2024-05-09T03:47:40.249Z,72.47
2024-05-09T03:48:21.635Z,71.67
2024-05-09T03:49:01.624Z,71.04
2024-05-09T03:49:41.673Z,70.84
2024-05-09T03:50:30.020Z,71.11
2024-05-09T03:51:13.921Z,71.09
2024-05-09T03:51:53.712Z,71.01
2024-05-09T03:52:33.582Z,71.00
2024-05-09T03:53:14.966Z,71.07
2024-05-09T03:53:55.132Z,71.05
2024-05-09T03:54:37.562Z,70.87
2024-05-09T03:55:18.081Z,71.13
2024-05-09T03:55:58.291Z,70.32
2024-05-09T03:56:38.907Z,70.63
2024-05-09T03:57:18.704Z,70.58
2024-05-09T03:57:58.670Z,70.67
2024-05-09T03:58:38.652Z,71.06
2024-05-09T03:59:19.382Z,70.94
2024-05-09T03:59:59.167Z,71.21
2024-05-09T04:00:40.238Z,71.82
2024-05-09T04:01:20.301Z,71.17
2024-05-09T04:02:00.557Z,71.13
2024-05-09T04:02:44.517Z,71.35
2024-05-09T04:03:24.586Z,71.14
2024-05-09T04:04:05.228Z,70.84
2024-05-09T04:04:46.020Z,71.15
2024-05-09T04:05:27.291Z,70.94
2024-05-09T04:06:07.767Z,70.64
2024-05-09T04:06:48.250Z,69.87
2024-05-09T04:07:28.062Z,70.08
2024-05-09T04:08:08.169Z,70.03
2024-05-09T04:08:48.047Z,70.92
2024-05-09T04:09:27.829Z,70.58
2024-05-09T04:10:16.985Z,70.27
2024-05-09T04:11:03.606Z,70.00
2024-05-09T04:11:43.693Z,70.94
2024-05-09T04:12:23.562Z,71.20
2024-05-09T04:13:04.611Z,71.58
2024-05-09T04:13:44.421Z,71.71
2024-05-09T04:14:24.587Z,71.52
2024-05-09T04:15:04.973Z,71.95
2024-05-09T04:15:44.983Z,71.19
2024-05-09T04:16:25.138Z,71.04
2024-05-09T04:17:05.027Z,70.90
2024-05-09T04:17:51.980Z,70.91
2024-05-09T04:18:32.026Z,70.63
2024-05-09T04:19:11.948Z,71.96
2024-05-09T04:19:51.809Z,73.05
2024-05-09T04:20:38.203Z,73.60
2024-05-09T04:21:20.440Z,72.86
2024-05-09T04:22:00.915Z,72.33
2024-05-09T04:22:40.865Z,72.62
2024-05-09T04:23:20.779Z,72.33
2024-05-09T04:24:00.822Z,72.37
2024-05-09T04:24:40.530Z,72.06
2024-05-09T04:25:20.311Z,71.69
2024-05-09T04:26:05.190Z,72.90
2024-05-09T04:26:45.318Z,73.73
2024-05-09T04:27:25.103Z,74.25
2024-05-09T04:28:05.085Z,73.15
2024-05-09T04:28:44.969Z,73.48
2024-05-09T04:29:25.042Z,72.92
2024-05-09T04:30:07.874Z,72.36
2024-05-09T04:30:49.719Z,73.46
2024-05-09T04:31:30.413Z,73.47
2024-05-09T04:32:10.654Z,73.52
2024-05-09T04:32:52.536Z,73.89
2024-05-09T04:33:32.597Z,73.82
2024-05-09T04:34:12.939Z,73.13
2024-05-09T04:34:53.037Z,73.63
2024-05-09T04:35:32.832Z,73.35
2024-05-09T04:36:12.791Z,74.02
2024-05-09T04:36:52.521Z,74.31
2024-05-09T04:37:32.535Z,74.57
2024-05-09T04:38:13.290Z,74.35
2024-05-09T04:38:53.358Z,73.87
2024-05-09T04:39:33.098Z,73.85
2024-05-09T04:40:24.086Z,73.29
2024-05-09T04:41:11.162Z,74.08
2024-05-09T04:41:50.959Z,74.29
2024-05-09T04:42:30.711Z,74.49
2024-05-09T04:43:21.475Z,73.84
2024-05-09T04:44:01.500Z,73.29
2024-05-09T04:44:41.272Z,73.01
2024-05-09T04:45:21.156Z,72.12
2024-05-09T04:46:01.257Z,71.99
2024-05-09T04:46:41.133Z,71.85
2024-05-09T04:47:21.057Z,71.77
2024-05-09T04:48:01.410Z,72.88
2024-05-09T04:48:42.245Z,72.87
2024-05-09T04:49:22.253Z,73.55
2024-05-09T04:50:02.574Z,73.72
2024-05-09T04:50:42.736Z,73.32
2024-05-09T04:51:23.048Z,73.26
2024-05-09T04:52:03.071Z,72.42
2024-05-09T04:52:42.856Z,71.97
2024-05-09T04:53:22.955Z,71.44
2024-05-09T04:54:03.246Z,71.76
2024-05-09T04:54:43.006Z,71.73
2024-05-09T04:55:22.916Z,71.79
2024-05-09T04:56:02.624Z,71.79
2024-05-09T04:56:42.859Z,72.10
2024-05-09T04:57:22.657Z,72.14
2024-05-09T04:58:02.654Z,72.45
2024-05-09T04:58:42.394Z,71.84
2024-05-09T04:59:22.994Z,72.14
2024-05-09T05:00:07.218Z,72.69
2024-05-09T05:00:49.659Z,72.78
2024-05-09T05:01:29.585Z,72.67
2024-05-09T05:02:09.702Z,72.35
2024-05-09T05:02:49.740Z,72.34
2024-05-09T05:03:29.744Z,72.16
2024-05-09T05:04:09.773Z,72.43
2024-05-09T05:04:50.090Z,72.29
2024-05-09T05:05:29.992Z,72.31
2024-05-09T05:06:10.427Z,72.33
2024-05-09T05:06:50.298Z,72.06
2024-05-09T05:08:01.797Z,71.64
2024-05-09T05:08:41.648Z,71.54
2024-05-09T05:09:21.629Z,71.20
2024-05-09T05:10:01.739Z,71.49
2024-05-09T05:10:41.959Z,71.80
2024-05-09T05:11:21.833Z,71.76
2024-05-09T05:12:03.825Z,71.89
2024-05-09T05:13:02.651Z,71.48
2024-05-09T05:13:44.503Z,71.19
2024-05-09T05:14:24.549Z,70.98
2024-05-09T05:15:04.307Z,70.91
2024-05-09T05:16:20.629Z,71.46
2024-05-09T05:17:18.803Z,71.52
2024-05-09T05:17:58.995Z,71.23
2024-05-09T05:18:39.064Z,71.54
2024-05-09T05:19:18.992Z,70.99
2024-05-09T05:19:59.624Z,70.88
2024-05-09T05:20:40.326Z,71.14
2024-05-09T05:21:20.913Z,70.77
2024-05-09T05:22:01.000Z,70.92
2024-05-09T05:22:44.115Z,71.06
2024-05-09T05:23:25.042Z,70.64
2024-05-09T05:24:07.130Z,70.67
2024-05-09T05:24:47.012Z,71.08
2024-05-09T05:25:26.898Z,71.00
2024-05-09T05:26:07.284Z,70.86
2024-05-09T05:26:47.578Z,69.97
2024-05-09T05:27:27.533Z,70.99
2024-05-09T05:28:07.693Z,70.61
2024-05-09T05:28:48.288Z,70.35
2024-05-09T05:29:28.230Z,70.03
2024-05-09T05:30:14.656Z,70.28
2024-05-09T05:30:57.829Z,70.38
2024-05-09T05:31:37.599Z,70.09
2024-05-09T05:32:18.157Z,70.32
2024-05-09T05:32:58.263Z,69.99
2024-05-09T05:33:38.453Z,70.43
2024-05-09T05:34:18.322Z,70.37
2024-05-09T05:34:58.506Z,70.23
2024-05-09T05:35:38.752Z,70.42
2024-05-09T05:36:18.475Z,69.60
2024-05-09T05:36:58.482Z,69.18
2024-05-09T05:37:39.244Z,69.60
2024-05-09T05:38:21.227Z,69.15
2024-05-09T05:39:02.414Z,69.69
2024-05-09T05:39:42.592Z,69.51
2024-05-09T05:40:32.079Z,69.40
2024-05-09T05:41:15.732Z,69.18
2024-05-09T05:41:55.628Z,69.35
2024-05-09T05:42:35.423Z,68.81
2024-05-09T05:43:20.123Z,68.71
2024-05-09T05:44:00.077Z,68.24
2024-05-09T05:44:40.006Z,68.83
2024-05-09T05:45:20.068Z,68.82
2024-05-09T05:46:00.060Z,68.58
2024-05-09T05:46:39.839Z,69.14
2024-05-09T05:47:19.846Z,69.42
2024-05-09T05:48:00.956Z,69.53
2024-05-09T05:48:41.639Z,69.72
2024-05-09T05:49:21.752Z,68.96
2024-05-09T05:50:01.863Z,69.11
2024-05-09T05:50:41.961Z,68.79
2024-05-09T05:51:22.128Z,68.67
2024-05-09T05:52:01.969Z,68.41
2024-05-09T05:52:42.915Z,69.10
2024-05-09T05:53:22.970Z,68.85
2024-05-09T05:54:03.004Z,68.73
2024-05-09T05:54:42.810Z,68.62
2024-05-09T05:55:22.816Z,68.69
2024-05-09T05:56:02.647Z,68.40
2024-05-09T05:56:43.015Z,69.16
2024-05-09T05:57:22.810Z,69.06
2024-05-09T05:58:03.871Z,69.32
2024-05-09T05:58:44.213Z,69.81
2024-05-09T05:59:25.010Z,69.55
2024-05-09T06:00:09.382Z,68.87
2024-05-09T06:00:54.545Z,68.92
2024-05-09T06:01:34.717Z,68.58
2024-05-09T06:02:14.977Z,68.59
2024-05-09T06:02:54.954Z,68.30
2024-05-09T06:03:34.971Z,68.16
2024-05-09T06:04:14.828Z,68.26
2024-05-09T06:04:55.136Z,68.71
2024-05-09T06:05:36.187Z,68.79
2024-05-09T06:06:16.187Z,68.37
2024-05-09T06:06:55.958Z,68.48
2024-05-09T06:07:35.931Z,68.26
2024-05-09T06:08:15.953Z,68.21
2024-05-09T06:08:56.276Z,68.44
2024-05-09T06:09:36.490Z,68.33
2024-05-09T06:10:21.498Z,68.09
2024-05-09T06:11:05.710Z,67.55
2024-05-09T06:11:45.714Z,68.11
2024-05-09T06:12:25.741Z,68.14
2024-05-09T06:13:06.469Z,67.91
2024-05-09T06:13:46.323Z,67.58
2024-05-09T06:14:26.680Z,67.34
2024-05-09T06:15:07.359Z,67.70
2024-05-09T06:15:47.523Z,67.50
2024-05-09T06:16:27.288Z,67.96
2024-05-09T06:17:07.133Z,67.64
2024-05-09T06:17:47.078Z,67.88
2024-05-09T06:18:27.578Z,67.54
2024-05-09T06:19:07.727Z,66.28
2024-05-09T06:19:47.820Z,66.18
2024-05-09T06:20:35.440Z,65.02
2024-05-09T06:21:21.169Z,65.18
2024-05-09T06:22:01.106Z,66.09
2024-05-09T06:22:40.957Z,66.48
2024-05-09T06:23:21.759Z,65.94
2024-05-09T06:24:03.799Z,65.76
2024-05-09T06:24:45.109Z,66.23
2024-05-09T06:25:24.890Z,66.06
2024-05-09T06:26:06.597Z,66.08
2024-05-09T06:26:47.450Z,65.64
2024-05-09T06:27:27.356Z,65.53
2024-05-09T06:28:07.497Z,65.11
2024-05-09T06:28:47.544Z,64.89
2024-05-09T06:29:27.630Z,64.72
2024-05-09T06:30:09.985Z,65.20
2024-05-09T06:30:51.898Z,64.00
2024-05-09T06:31:31.812Z,63.81
2024-05-09T06:32:11.918Z,63.18
2024-05-09T06:32:51.966Z,63.99
2024-05-09T06:33:31.962Z,64.67
2024-05-09T06:34:12.397Z,64.37
2024-05-09T06:34:52.860Z,64.47
2024-05-09T06:35:32.825Z,64.70
2024-05-09T06:36:12.932Z,64.29
2024-05-09T06:36:52.686Z,65.64
2024-05-09T06:37:32.688Z,66.29
2024-05-09T06:38:12.725Z,65.75
2024-05-09T06:38:52.607Z,65.23
2024-05-09T06:39:35.408Z,65.39
2024-05-09T06:40:21.179Z,63.60
2024-05-09T06:41:05.382Z,63.21
2024-05-09T06:41:45.172Z,61.36
2024-05-09T06:42:24.985Z,61.22
2024-05-09T06:43:05.152Z,59.63
2024-05-09T06:43:45.141Z,59.94
2024-05-09T06:44:25.002Z,61.06
2024-05-09T06:45:04.970Z,60.04
2024-05-09T06:45:45.132Z,59.39
2024-05-09T06:46:26.326Z,60.50
2024-05-09T06:47:06.345Z,61.36
2024-05-09T06:47:46.302Z,61.11
2024-05-09T06:48:26.827Z,60.31
2024-05-09T06:49:09.323Z,54.81
2024-05-09T06:49:49.345Z,53.47
2024-05-09T06:50:36.825Z,53.74
2024-05-09T06:51:18.361Z,51.54
2024-05-09T06:51:58.124Z,51.24
2024-05-09T06:52:37.931Z,54.80
2024-05-09T06:53:18.519Z,53.87
2024-05-09T06:53:58.741Z,53.97
2024-05-09T06:54:38.882Z,52.64
2024-05-09T06:55:18.600Z,52.36
2024-05-09T06:55:58.363Z,52.36
2024-05-09T06:57:12.366Z,52.80
2024-05-09T06:57:52.275Z,52.58
2024-05-09T06:58:32.038Z,53.00
2024-05-09T06:59:12.079Z,53.43
2024-05-09T06:59:51.804Z,53.00
2024-05-09T07:00:38.541Z,52.45
2024-05-09T07:01:21.702Z,53.09
2024-05-09T07:02:01.742Z,52.32
2024-05-09T07:02:41.641Z,50.79
2024-05-09T07:03:21.705Z,49.71
2024-05-09T07:04:01.764Z,49.99
2024-05-09T07:04:41.781Z,50.19
2024-05-09T07:05:21.593Z,49.93
2024-05-09T07:06:01.692Z,50.46
2024-05-09T07:06:41.490Z,51.36
2024-05-09T07:07:21.539Z,50.63
2024-05-09T07:08:16.878Z,50.77
2024-05-09T07:08:56.791Z,49.32
2024-05-09T07:09:36.968Z,53.27
2024-05-09T07:10:22.156Z,49.24
2024-05-09T07:11:08.568Z,49.98
2024-05-09T07:11:48.554Z,49.49
2024-05-09T07:12:28.488Z,49.24
2024-05-09T07:13:12.552Z,50.90
2024-05-09T07:13:52.963Z,50.75
2024-05-09T07:14:33.977Z,50.65
2024-05-09T07:15:14.565Z,50.25
2024-05-09T07:15:54.699Z,50.62
2024-05-09T07:16:34.742Z,50.44
2024-05-09T07:17:15.201Z,52.22
2024-05-09T07:17:55.233Z,51.08
2024-05-09T07:18:37.252Z,48.87
2024-05-09T07:19:17.435Z,47.73
2024-05-09T07:19:57.361Z,47.58
2024-05-09T07:20:37.183Z,49.24
2024-05-09T07:21:17.446Z,47.78
2024-05-09T07:21:57.368Z,47.60
2024-05-09T07:22:37.098Z,46.51
2024-05-09T07:23:17.243Z,46.50
2024-05-09T07:23:58.448Z,45.22
2024-05-09T07:24:39.149Z,45.55
2024-05-09T07:25:18.943Z,45.94
2024-05-09T07:25:59.121Z,45.52
2024-05-09T07:26:39.393Z,46.00
2024-05-09T07:27:19.326Z,46.05
2024-05-09T07:27:59.185Z,48.06
2024-05-09T07:28:39.007Z,46.44
2024-05-09T07:29:18.967Z,47.42
2024-05-09T07:29:58.946Z,46.87
2024-05-09T07:30:38.732Z,47.36
2024-05-09T07:31:18.460Z,47.05
2024-05-09T07:31:58.684Z,47.79
2024-05-09T07:32:38.656Z,49.48
2024-05-09T07:33:23.567Z,48.37
2024-05-09T07:34:04.280Z,47.70
2024-05-09T07:34:44.203Z,47.57
2024-05-09T07:35:24.207Z,45.43
2024-05-09T07:36:03.980Z,47.63
2024-05-09T07:36:44.185Z,46.99
2024-05-09T07:37:24.621Z,47.82
2024-05-09T07:38:04.916Z,43.60
2024-05-09T07:38:44.702Z,43.05
2024-05-09T07:39:25.523Z,44.61
2024-05-09T07:40:07.636Z,44.24
2024-05-09T07:40:47.685Z,44.10
2024-05-09T07:41:27.673Z,43.27
2024-05-09T07:42:07.711Z,41.03
2024-05-09T07:42:47.752Z,40.38
2024-05-09T07:43:28.968Z,40.63
2024-05-09T07:44:08.792Z,41.47
2024-05-09T07:44:48.608Z,43.98
2024-05-09T07:45:45.068Z,45.25
2024-05-09T07:47:36.781Z,41.07
2024-05-09T07:49:44.757Z,40.19
2024-05-09T07:50:55.698Z,41.62
2024-05-09T07:53:37.179Z,41.88
2024-05-09T07:54:12.313Z,41.05
2024-05-09T07:54:52.308Z,42.26
2024-05-09T07:55:32.372Z,42.85
2024-05-09T07:56:12.758Z,42.32
2024-05-09T07:56:53.455Z,39.96
2024-05-09T07:57:33.399Z,39.49
2024-05-09T07:58:13.158Z,39.23
2024-05-09T07:58:54.774Z,40.03
2024-05-09T07:59:37.912Z,39.05
2024-05-09T08:00:23.689Z,38.73
2024-05-09T08:01:09.564Z,38.52
2024-05-09T08:01:49.864Z,38.92
2024-05-09T08:02:30.799Z,38.87
2024-05-09T08:03:12.232Z,39.21
2024-05-09T08:03:52.288Z,38.48
2024-05-09T08:04:32.397Z,38.10
2024-05-09T08:05:12.741Z,38.72
2024-05-09T08:05:53.206Z,39.00
2024-05-09T08:06:33.312Z,39.37
2024-05-09T08:07:13.094Z,42.40
2024-05-09T08:07:53.853Z,43.20
2024-05-09T08:08:33.622Z,42.39
2024-05-09T08:09:53.498Z,43.44
2024-05-09T08:10:36.084Z,43.59
2024-05-09T08:11:16.103Z,41.92
2024-05-09T08:11:55.996Z,42.20
2024-05-09T08:12:35.915Z,40.68
2024-05-09T08:13:16.362Z,38.28
2024-05-09T08:13:56.198Z,37.32
2024-05-09T08:14:36.096Z,38.36
2024-05-09T08:15:15.890Z,38.34
2024-05-09T08:15:56.220Z,39.27
2024-05-09T08:16:36.028Z,39.19
2024-05-09T08:17:15.794Z,38.93
2024-05-09T08:17:55.632Z,38.05
2024-05-09T08:18:35.932Z,37.55
2024-05-09T08:19:16.055Z,37.94
2024-05-09T08:19:57.061Z,37.54
2024-05-09T08:20:38.559Z,35.53
2024-05-09T08:21:20.229Z,34.13
2024-05-09T08:22:00.117Z,33.77
2024-05-09T08:22:39.831Z,33.86
2024-05-09T08:23:19.742Z,33.76
2024-05-09T08:24:01.177Z,33.95
2024-05-09T08:24:40.956Z,34.51
2024-05-09T08:25:20.724Z,34.92
2024-05-09T08:26:00.484Z,34.87
2024-05-09T08:26:40.431Z,36.33
2024-05-09T08:27:20.346Z,36.71
2024-05-09T08:28:00.203Z,34.98
2024-05-09T08:28:39.966Z,34.18
2024-05-09T08:29:20.254Z,32.38
2024-05-09T08:30:00.355Z,32.38
2024-05-09T08:30:40.385Z,33.05
2024-05-09T08:31:20.318Z,32.98
2024-05-09T08:32:00.658Z,33.66
2024-05-09T08:32:42.194Z,33.86
2024-05-09T08:33:22.073Z,34.25
2024-05-09T08:34:02.193Z,35.72
2024-05-09T08:34:42.663Z,34.73
2024-05-09T08:35:22.442Z,34.47
2024-05-09T08:36:02.355Z,33.44
2024-05-09T08:36:43.231Z,33.39
2024-05-09T08:37:27.819Z,34.23
2024-05-09T08:38:11.347Z,34.74
2024-05-09T08:38:51.114Z,36.03
2024-05-09T08:39:31.018Z,33.37
2024-05-09T08:40:23.593Z,36.72
2024-05-09T08:41:08.714Z,35.09
2024-05-09T08:41:55.128Z,35.33
2024-05-09T08:42:36.583Z,35.58
2024-05-09T08:43:21.305Z,35.09
2024-05-09T08:44:01.237Z,36.32
2024-05-09T08:44:41.092Z,37.87
2024-05-09T08:45:24.017Z,33.99
2024-05-09T08:46:07.200Z,35.29
2024-05-09T08:46:49.678Z,34.51
2024-05-09T08:47:34.027Z,33.02
2024-05-09T08:48:16.451Z,34.68
2024-05-09T08:48:59.234Z,34.44
2024-05-09T08:49:41.412Z,33.96
2024-05-09T08:50:31.991Z,35.01
2024-05-09T08:51:18.045Z,33.69
2024-05-09T08:51:57.980Z,34.22
2024-05-09T08:52:38.669Z,35.69
2024-05-09T08:53:18.549Z,35.34
2024-05-09T08:53:58.408Z,34.74
2024-05-09T08:54:38.390Z,34.44